Time;durP1;ratioP1;P1;durP2;ratioP2;P2;SDS_P1;SDS_P2;PMS_P1;PMS_P2;Temp;Humidity;BMP_temperature;BMP_pressure;BME280_temperature;BME280_humidity;BME280_pressure;Samples;Min_cycle;Max_cycle;Signal;HPM_P1;HPM_P2
2022/11/02 00:01:24;;;;;;;4.25;0.50;;;12.70;99.90;;;;;;4956729;29;20109;-64
2022/11/02 00:03:50;;;;;;;2.92;0.50;;;12.70;99.90;;;;;;4946083;29;20051;-63
2022/11/02 00:06:16;;;;;;;1.42;0.63;;;13.00;99.90;;;;;;4956467;29;20042;-63
2022/11/02 00:08:41;;;;;;;2.60;0.57;;;12.60;99.90;;;;;;4956704;29;20081;-63
2022/11/02 00:11:07;;;;;;;2.83;0.63;;;12.60;99.90;;;;;;4956219;29;20043;-63
2022/11/02 00:13:33;;;;;;;1.20;0.57;;;12.50;99.90;;;;;;4956581;29;20093;-63
2022/11/02 00:16:04;;;;;;;1.20;0.60;;;12.40;99.90;;;;;;4956550;29;20067;-63
2022/11/02 00:18:31;;;;;;;4.20;0.70;;;12.30;99.90;;;;;;4956506;29;20503;-63
2022/11/02 00:20:57;;;;;;;2.65;0.77;;;12.30;99.90;;;;;;4956469;29;20035;-63
2022/11/02 00:23:23;;;;;;;2.40;0.70;;;12.30;99.90;;;;;;4956409;29;20093;-63
2022/11/02 00:25:51;;;;;;;2.40;0.90;;;12.30;99.90;;;;;;4939238;29;20035;-63
2022/11/02 00:28:17;;;;;;;0.90;0.45;;;12.20;99.90;;;;;;4938762;29;20051;-63
2022/11/02 00:30:43;;;;;;;0.82;0.35;;;12.20;99.90;;;;;;4939256;29;20043;-63
2022/11/02 00:33:09;;;;;;;0.60;0.43;;;12.20;99.90;;;;;;4955822;29;20043;-63
2022/11/02 00:35:35;;;;;;;0.93;0.50;;;12.20;99.90;;;;;;4939087;29;20175;-63
2022/11/02 00:38:01;;;;;;;12.40;0.75;;;12.30;99.90;;;;;;4955812;29;20059;-63
2022/11/02 00:40:27;;;;;;;2.25;0.70;;;12.70;99.90;;;;;;4938920;29;20069;-63
2022/11/02 00:42:53;;;;;;;4.28;0.47;;;12.20;99.90;;;;;;4955703;29;20047;-63
2022/11/02 00:45:18;;;;;;;5.15;0.90;;;12.30;99.90;;;;;;4956069;29;20047;-63
2022/11/02 00:47:44;;;;;;;5.18;0.60;;;12.30;99.90;;;;;;4955941;29;20046;-63
2022/11/02 00:50:10;;;;;;;4.00;0.73;;;12.30;99.90;;;;;;4955573;29;20083;-63
2022/11/02 00:52:38;;;;;;;3.03;0.80;;;12.30;99.90;;;;;;4938378;29;20047;-69
2022/11/02 00:55:05;;;;;;;6.57;0.90;;;12.30;99.90;;;;;;4938676;29;20399;-63
2022/11/02 00:57:31;;;;;;;1.00;0.40;;;12.30;99.90;;;;;;4955848;29;20179;-63
2022/11/02 00:59:56;;;;;;;2.22;0.93;;;12.30;99.90;;;;;;4938290;29;20043;-63
2022/11/02 01:02:22;;;;;;;1.02;0.50;;;12.20;99.90;;;;;;4955752;29;20451;-62
2022/11/02 01:04:48;;;;;;;0.93;0.40;;;12.10;99.90;;;;;;4955482;28;20125;-62
2022/11/02 01:07:13;;;;;;;3.35;0.57;;;12.00;99.90;;;;;;4955398;29;20479;-62
2022/11/02 01:09:39;;;;;;;0.93;0.40;;;11.80;99.90;;;;;;4955653;29;20043;-61
2022/11/02 01:12:05;;;;;;;1.83;0.73;;;11.70;99.90;;;;;;4955514;29;20478;-61
2022/11/02 01:14:31;;;;;;;2.45;0.90;;;11.60;99.90;;;;;;4938215;29;20133;-61
2022/11/02 01:16:57;;;;;;;1.08;0.45;;;11.50;99.90;;;;;;4955585;29;20154;-61
2022/11/02 01:19:24;;;;;;;0.73;0.30;;;11.30;99.90;;;;;;4955513;29;20380;-61
2022/11/02 01:21:49;;;;;;;1.75;0.30;;;11.20;99.90;;;;;;4955476;29;20456;-61
2022/11/02 01:24:15;;;;;;;1.50;0.40;;;11.20;99.90;;;;;;4955157;29;20079;-61
2022/11/02 01:26:42;;;;;;;0.40;0.40;;;11.10;99.90;;;;;;4937953;29;20133;-61
2022/11/02 01:29:08;;;;;;;1.48;0.52;;;11.10;99.90;;;;;;4955405;29;20049;-62
2022/11/02 01:31:33;;;;;;;0.82;0.82;;;11.00;99.90;;;;;;4938005;29;20126;-62
2022/11/02 01:33:59;;;;;;;0.82;0.63;;;11.00;99.90;;;;;;4955072;29;20411;-62
2022/11/02 01:36:25;;;;;;;2.85;0.50;;;11.10;99.90;;;;;;4955080;29;20040;-61
2022/11/02 01:38:51;;;;;;;0.40;0.30;;;11.00;99.90;;;;;;4937760;29;20114;-62
2022/11/02 01:41:17;;;;;;;1.85;0.47;;;10.90;99.90;;;;;;4955362;29;20141;-61
2022/11/02 01:43:44;;;;;;;1.10;0.63;;;11.00;99.90;;;;;;4955302;29;20067;-61
2022/11/02 01:46:10;;;;;;;2.60;0.68;;;11.00;99.90;;;;;;4954924;29;20043;-62
2022/11/02 01:48:44;;;;;;;3.53;0.77;;;11.00;99.90;;;;;;4955246;29;20051;-61
2022/11/02 01:51:18;;;;;;;0.73;0.68;;;11.10;99.90;;;;;;4955216;29;20480;-62
2022/11/02 01:53:46;;;;;;;2.38;0.70;;;11.00;99.90;;;;;;4955175;29;20051;-62
2022/11/02 01:56:16;;;;;;;0.73;0.65;;;11.00;99.90;;;;;;4937745;29;20048;-61
2022/11/02 01:58:45;;;;;;;3.10;1.27;;;11.00;99.90;;;;;;4955179;29;20383;-62
2022/11/02 02:01:11;;;;;;;1.55;0.50;;;11.20;99.90;;;;;;4938191;29;20054;-62
2022/11/02 02:03:37;;;;;;;2.28;0.65;;;10.90;99.90;;;;;;4955199;29;20554;-61
2022/11/02 02:06:11;;;;;;;1.10;0.60;;;10.90;99.90;;;;;;4937946;29;20051;-62
2022/11/02 02:08:42;;;;;;;1.33;0.50;;;10.90;99.90;;;;;;4937824;29;20483;-61
2022/11/02 02:11:40;;;;;;;4.57;1.13;;;10.90;99.90;;;;;;4954717;29;20036;-61
2022/11/02 02:14:12;;;;;;;3.17;0.90;;;10.90;99.90;;;;;;4912488;29;20399;-62
2022/11/02 02:16:52;;;;;;;1.67;1.08;;;10.90;99.90;;;;;;4955116;28;20047;-61
2022/11/02 02:19:30;;;;;;;1.90;0.68;;;10.90;99.90;;;;;;4941261;29;20047;-62
2022/11/02 02:21:56;;;;;;;4.63;1.05;;;11.00;99.90;;;;;;4958384;29;20419;-61
2022/11/02 02:24:42;;;;;;;2.30;0.65;;;11.10;99.90;;;;;;4958241;29;20047;-61
2022/11/02 02:27:20;;;;;;;1.08;0.75;;;11.00;99.90;;;;;;4958583;29;20186;-61
2022/11/02 02:30:08;;;;;;;2.88;1.73;;;11.10;99.90;;;;;;4958288;29;20047;-61
2022/11/02 02:32:50;;;;;;;2.22;0.82;;;11.10;99.90;;;;;;4958411;29;20039;-61
2022/11/02 02:35:20;;;;;;;6.95;1.17;;;11.20;99.90;;;;;;4958447;29;20043;-62
2022/11/02 02:37:59;;;;;;;1.95;0.52;;;11.20;99.90;;;;;;4957930;29;20086;-61
2022/11/02 02:40:39;;;;;;;1.77;1.15;;;11.20;99.90;;;;;;4958075;29;20046;-62
2022/11/02 02:43:21;;;;;;;2.83;0.97;;;11.30;99.90;;;;;;4958267;29;20039;-62
2022/11/02 02:45:50;;;;;;;;;;;11.30;99.90;;;;;;4958608;29;20495;-62
2022/11/02 02:48:19;;;;;;;7.20;0.85;;;11.20;99.90;;;;;;4958206;29;20298;-62
2022/11/02 02:50:49;;;;;;;3.05;0.82;;;11.20;99.90;;;;;;4958157;29;20121;-62
2022/11/02 02:53:18;;;;;;;5.40;1.77;;;11.30;99.90;;;;;;4957815;29;20051;-62
2022/11/02 02:55:46;;;;;;;4.13;0.90;;;11.20;99.90;;;;;;4958119;29;20043;-61
2022/11/02 02:58:23;;;;;;;1.60;0.88;;;11.20;99.90;;;;;;4958031;29;20109;-61
2022/11/02 03:00:51;;;;;;;1.15;0.65;;;11.10;99.90;;;;;;4940481;29;20054;-62
2022/11/02 03:03:20;;;;;;;2.75;0.70;;;11.10;99.90;;;;;;4957695;29;20046;-62
2022/11/02 03:06:17;;;;;;;2.20;0.90;;;11.10;99.90;;;;;;4957884;29;20046;-62
2022/11/02 03:08:54;;;;;;;2.60;0.40;;;11.10;99.90;;;;;;4957858;29;20043;-62
2022/11/02 03:11:22;;;;;;;1.33;0.77;;;11.10;99.90;;;;;;4957731;29;20043;-61
2022/11/02 03:14:01;;;;;;;1.58;0.60;;;11.10;99.90;;;;;;4940536;29;20086;-62
2022/11/02 03:16:33;;;;;;;2.25;0.70;;;11.00;99.90;;;;;;4957719;29;20486;-62
2022/11/02 03:19:21;;;;;;;1.55;0.77;;;10.90;99.90;;;;;;4957686;29;20043;-62
2022/11/02 03:21:54;;;;;;;3.72;0.75;;;10.90;99.90;;;;;;4940077;29;20047;-62
2022/11/02 03:24:33;;;;;;;2.38;0.50;;;10.90;99.90;;;;;;4957535;29;20036;-62
2022/11/02 03:27:16;;;;;;;2.90;1.17;;;10.80;99.90;;;;;;4957471;29;20094;-62
2022/11/02 03:30:00;;;;;;;3.13;0.73;;;10.80;99.90;;;;;;4940182;29;20082;-62
2022/11/02 03:33:03;;;;;;;1.42;0.50;;;10.90;99.90;;;;;;4957011;29;20083;-62
2022/11/02 03:36:02;;;;;;;2.30;0.73;;;10.80;99.90;;;;;;4957401;29;20041;-61
2022/11/02 03:38:35;;;;;;;0.77;0.77;;;10.80;99.90;;;;;;4926673;29;20059;-62
2022/11/02 03:41:03;;;;;;;4.47;0.77;;;10.80;99.90;;;;;;4957122;29;20137;-62
2022/11/02 03:43:34;;;;;;;3.53;0.52;;;10.80;99.90;;;;;;4957226;29;20039;-61
2022/11/02 03:46:01;;;;;;;;;;;10.80;99.90;;;;;;4957595;29;20550;-62
2022/11/02 03:48:34;;;;;;;4.53;0.77;;;10.80;99.90;;;;;;4957090;29;20381;-62
2022/11/02 03:51:04;;;;;;;0.45;0.35;;;10.80;99.90;;;;;;4957072;29;20395;-62
2022/11/02 03:53:33;;;;;;;1.45;0.57;;;10.80;99.90;;;;;;4956982;29;20185;-62
2022/11/02 03:56:05;;;;;;;0.40;0.30;;;10.70;99.90;;;;;;4956925;29;20050;-62
2022/11/02 03:58:31;;;;;;;3.25;0.60;;;9.00;99.90;;;;;;4939711;29;20395;-61
2022/11/02 04:01:01;;;;;;;1.65;0.43;;;10.60;99.90;;;;;;4923800;29;20049;-62
2022/11/02 04:03:30;;;;;;;0.90;0.43;;;10.60;99.90;;;;;;4956552;29;20054;-62
2022/11/02 04:05:55;;;;;;;2.00;0.40;;;10.60;99.90;;;;;;4939293;29;20101;-62
2022/11/02 04:08:33;;;;;;;3.38;0.77;;;10.60;99.90;;;;;;4956646;29;20043;-62
2022/11/02 04:16:27;;;;;;;1.17;0.73;;;10.60;99.90;;;;;;4956593;29;20100;-62
2022/11/02 04:21:37;;;;;;;0.20;0.20;;;10.70;99.90;;;;;;4956446;29;20506;-62
2022/11/02 04:26:46;;;;;;;0.65;0.40;;;10.60;99.90;;;;;;4956110;29;20138;-62
2022/11/02 04:29:12;;;;;;;0.43;0.30;;;10.60;99.90;;;;;;4956069;29;20083;-62
2022/11/02 04:31:38;;;;;;;3.83;0.60;;;10.60;99.90;;;;;;4956271;29;20094;-62
2022/11/02 04:34:03;;;;;;;0.75;0.40;;;10.60;99.90;;;;;;4956228;29;20467;-63
2022/11/02 04:36:30;;;;;;;1.13;0.63;;;10.60;99.90;;;;;;4938790;29;20079;-62
2022/11/02 04:38:56;;;;;;;1.20;0.52;;;10.20;99.90;;;;;;4955725;29;20427;-61
2022/11/02 04:41:41;;;;;;;0.73;0.28;;;10.70;99.90;;;;;;4955691;28;20035;-62
2022/11/02 04:44:09;;;;;;;3.03;1.15;;;10.70;99.90;;;;;;4956125;29;20031;-62
2022/11/02 04:46:36;;;;;;;2.28;0.75;;;10.70;99.90;;;;;;4956070;29;20122;-62
2022/11/02 04:49:02;;;;;;;3.63;1.10;;;10.60;99.90;;;;;;4956002;29;20059;-63
2022/11/02 04:51:29;;;;;;;2.42;0.60;;;10.80;99.90;;;;;;4955599;29;20046;-62
2022/11/02 04:53:56;;;;;;;0.98;0.43;;;10.70;99.90;;;;;;4955590;29;20035;-63
2022/11/02 04:56:23;;;;;;;0.73;0.40;;;10.70;99.90;;;;;;4955547;29;20035;-62
2022/11/02 04:58:53;;;;;;;5.05;0.60;;;10.70;99.90;;;;;;4938722;29;20064;-62
2022/11/02 05:01:20;;;;;;;2.42;0.93;;;10.80;99.90;;;;;;4955668;29;20032;-62
2022/11/02 05:03:50;;;;;;;1.90;0.73;;;10.90;99.90;;;;;;4955848;29;20411;-63
2022/11/02 05:06:17;;;;;;;0.98;0.50;;;10.80;99.90;;;;;;4938240;29;20047;-62
2022/11/02 05:08:44;;;;;;;3.33;1.20;;;10.80;99.90;;;;;;4955718;29;20031;-62
2022/11/02 05:11:10;;;;;;;3.70;0.85;;;10.80;99.90;;;;;;4955684;29;20036;-62
2022/11/02 05:13:37;;;;;;;3.88;1.17;;;10.80;99.90;;;;;;4955460;29;20062;-63
2022/11/02 05:16:03;;;;;;;0.80;0.63;;;10.80;99.90;;;;;;4955626;29;20035;-63
2022/11/02 05:18:29;;;;;;;1.98;1.17;;;10.80;99.90;;;;;;4955550;29;20035;-62
2022/11/02 05:20:58;;;;;;;0.82;0.40;;;11.20;99.90;;;;;;4938058;29;20047;-63
2022/11/02 05:23:24;;;;;;;3.22;1.15;;;10.80;99.90;;;;;;4955518;29;20122;-63
2022/11/02 05:25:57;;;;;;;12.30;1.42;;;10.90;99.90;;;;;;4955488;29;20530;-63
2022/11/02 05:28:24;;;;;;;3.25;0.98;;;10.70;99.90;;;;;;4955180;29;20039;-63
2022/11/02 05:30:50;;;;;;;2.65;1.00;;;10.70;99.90;;;;;;4938263;29;20395;-63
2022/11/02 05:33:16;;;;;;;2.10;0.85;;;10.70;99.90;;;;;;4937955;29;20047;-62
2022/11/02 05:35:42;;;;;;;3.67;1.00;;;10.70;99.90;;;;;;4955358;29;20502;-63
2022/11/02 05:38:07;;;;;;;2.67;0.90;;;10.70;99.90;;;;;;4937809;29;20414;-63
2022/11/02 05:40:36;;;;;;;2.28;0.80;;;10.70;99.90;;;;;;4955394;29;20050;-63
2022/11/02 05:43:02;;;;;;;9.02;1.20;;;10.70;99.90;;;;;;4955078;29;20051;-63
2022/11/02 05:45:29;;;;;;;7.07;0.93;;;10.80;99.90;;;;;;4955010;29;20050;-63
2022/11/02 05:47:55;;;;;;;2.08;0.90;;;10.80;99.90;;;;;;4955277;29;20110;-62
2022/11/02 05:50:20;;;;;;;3.78;1.17;;;10.80;99.90;;;;;;4955247;29;20038;-63
2022/11/02 05:52:46;;;;;;;2.72;0.95;;;10.70;99.90;;;;;;4957141;28;20046;-62
2022/11/02 05:55:12;;;;;;;5.25;1.23;;;10.80;99.90;;;;;;4958921;29;20039;-62
2022/11/02 05:57:38;;;;;;;3.20;1.00;;;10.80;99.90;;;;;;4959035;29;20039;-62
2022/11/02 06:00:05;;;;;;;1.63;0.57;;;10.80;99.90;;;;;;4959018;29;20484;-63
2022/11/02 06:02:33;;;;;;;2.80;0.68;;;10.80;99.90;;;;;;4941922;29;20055;-63
2022/11/02 06:04:59;;;;;;;2.30;0.63;;;10.70;99.90;;;;;;4958907;29;20090;-63
2022/11/02 06:07:25;;;;;;;1.75;0.45;;;10.70;99.90;;;;;;4958880;29;20046;-63
2022/11/02 06:09:51;;;;;;;3.50;0.75;;;10.70;99.90;;;;;;4958867;29;20039;-63
2022/11/02 06:12:17;;;;;;;3.55;0.90;;;10.60;99.90;;;;;;4958486;29;20047;-63
2022/11/02 06:14:42;;;;;;;2.60;0.73;;;10.50;99.90;;;;;;4941210;29;20050;-63
2022/11/02 06:17:08;;;;;;;11.93;1.17;;;10.50;99.90;;;;;;4941175;29;20035;-63
2022/11/02 06:19:34;;;;;;;4.05;1.25;;;10.60;99.90;;;;;;4958751;29;20399;-62
2022/11/02 06:21:59;;;;;;;4.95;0.93;;;10.50;99.90;;;;;;4958596;29;20106;-62
2022/11/02 06:24:25;;;;;;;1.35;0.68;;;10.60;99.90;;;;;;4958591;29;20039;-62
2022/11/02 06:26:51;;;;;;;4.13;0.60;;;10.60;99.90;;;;;;4958561;29;20550;-62
2022/11/02 06:29:16;;;;;;;3.40;1.15;;;10.60;99.90;;;;;;4958311;29;20043;-62
2022/11/02 06:31:42;;;;;;;1.33;0.70;;;10.60;99.90;;;;;;4958133;29;20122;-61
2022/11/02 06:34:08;;;;;;;8.75;1.60;;;10.60;99.90;;;;;;4940934;29;20054;-61
2022/11/02 06:36:34;;;;;;;3.80;1.27;;;10.60;99.90;;;;;;4958192;29;20372;-62
2022/11/02 06:38:59;;;;;;;2.80;0.65;;;11.10;99.90;;;;;;4958376;29;20043;-63
2022/11/02 06:41:25;;;;;;;11.20;1.40;;;10.60;99.90;;;;;;4958037;29;20043;-62
2022/11/02 06:43:51;;;;;;;3.80;0.75;;;10.70;99.90;;;;;;4957965;29;20043;-62
2022/11/02 06:46:16;;;;;;;4.63;0.98;;;10.70;99.90;;;;;;4958218;29;20066;-63
2022/11/02 06:48:45;;;;;;;2.42;0.82;;;10.70;99.90;;;;;;4940845;29;20053;-61
2022/11/02 06:51:10;;;;;;;2.33;0.88;;;10.70;99.90;;;;;;4958100;29;20057;-62
2022/11/02 06:53:36;;;;;;;4.75;0.82;;;10.70;99.90;;;;;;4940926;29;20118;-63
2022/11/02 06:56:02;;;;;;;1.95;0.70;;;10.70;99.90;;;;;;4957773;29;20047;-61
2022/11/02 06:58:27;;;;;;;1.08;0.55;;;10.70;99.90;;;;;;4958006;29;20035;-61
2022/11/02 07:01:02;;;;;;;5.50;1.05;;;10.70;99.90;;;;;;4957912;29;20114;-61
2022/11/02 07:03:28;;;;;;;2.17;0.82;;;10.70;99.90;;;;;;4939997;29;20082;-62
2022/11/02 07:05:54;;;;;;;2.15;0.60;;;10.80;99.90;;;;;;4940403;29;20041;-63
2022/11/02 07:08:21;;;;;;;6.68;0.95;;;10.70;99.90;;;;;;4957507;29;20057;-62
2022/11/02 07:10:47;;;;;;;3.70;0.95;;;10.70;99.90;;;;;;4957388;29;20040;-62
2022/11/02 07:13:13;;;;;;;3.13;0.93;;;10.70;99.90;;;;;;4957535;29;20040;-62
2022/11/02 07:15:38;;;;;;;4.40;0.77;;;10.70;99.90;;;;;;4940401;29;20129;-62
2022/11/02 07:18:05;;;;;;;3.67;0.90;;;10.70;99.90;;;;;;4957487;29;20035;-62
2022/11/02 07:20:32;;;;;;;7.18;0.80;;;10.70;99.90;;;;;;4957478;29;20554;-62
2022/11/02 07:22:59;;;;;;;3.97;1.27;;;10.80;99.90;;;;;;4957448;29;20051;-62
2022/11/02 07:25:27;;;;;;;7.97;0.57;;;10.80;99.90;;;;;;4939973;29;20047;-62
2022/11/02 07:27:53;;;;;;;1.52;0.73;;;10.90;99.90;;;;;;4957163;29;20451;-63
2022/11/02 07:30:19;;;;;;;3.90;0.90;;;10.90;99.90;;;;;;4957367;29;20086;-62
2022/11/02 07:32:45;;;;;;;3.63;0.80;;;11.00;99.90;;;;;;4957258;29;20051;-62
2022/11/02 07:35:13;;;;;;;3.15;1.05;;;11.10;99.90;;;;;;4956926;29;20384;-63
2022/11/02 07:37:39;;;;;;;2.47;0.90;;;11.00;99.90;;;;;;4939840;29;20078;-62
2022/11/02 07:40:06;;;;;;;3.38;0.90;;;11.00;99.90;;;;;;4957147;29;20126;-62
2022/11/02 07:42:32;;;;;;;4.60;1.02;;;11.00;99.90;;;;;;4923819;29;20126;-62
2022/11/02 07:44:58;;;;;;;3.40;0.85;;;11.00;99.90;;;;;;4957003;29;20123;-62
2022/11/02 07:47:24;;;;;;;3.03;1.10;;;11.00;99.90;;;;;;4956883;29;20082;-62
2022/11/02 07:49:50;;;;;;;5.72;0.68;;;11.00;99.90;;;;;;4956893;29;20098;-62
2022/11/02 07:52:15;;;;;;;4.63;0.85;;;10.90;99.90;;;;;;4939771;29;20047;-62
2022/11/02 07:54:41;;;;;;;1.60;0.55;;;10.90;99.90;;;;;;4939682;29;20043;-62
2022/11/02 07:57:07;;;;;;;2.92;0.75;;;10.90;99.90;;;;;;4956802;29;20372;-62
2022/11/02 07:59:32;;;;;;;1.85;0.50;;;10.90;99.90;;;;;;4939653;29;20411;-62
2022/11/02 08:01:58;;;;;;;4.40;0.98;;;11.00;99.90;;;;;;4956462;29;20043;-62
2022/11/02 08:04:24;;;;;;;2.80;0.90;;;11.00;99.90;;;;;;4956571;29;20047;-63
2022/11/02 08:06:49;;;;;;;1.85;0.70;;;11.00;99.90;;;;;;4956290;29;20043;-62
2022/11/02 08:09:15;;;;;;;3.53;1.30;;;11.00;99.90;;;;;;4956329;29;20039;-62
2022/11/02 08:11:41;;;;;;;2.50;0.65;;;10.90;99.90;;;;;;4956608;29;20173;-62
2022/11/02 08:14:07;;;;;;;1.38;0.70;;;10.90;99.90;;;;;;4939120;28;20122;-62
2022/11/02 08:16:32;;;;;;;2.58;0.80;;;10.90;99.90;;;;;;4955806;29;20403;-62
2022/11/02 08:18:58;;;;;;;10.35;2.40;;;10.90;99.90;;;;;;4956432;29;20039;-63
2022/11/02 08:21:25;;;;;;;8.55;1.05;;;10.90;99.90;;;;;;4956481;29;20170;-62
2022/11/02 08:23:50;;;;;;;9.40;1.17;;;10.90;99.90;;;;;;4938976;29;20050;-62
2022/11/02 08:26:16;;;;;;;1.15;0.45;;;11.00;99.90;;;;;;4939168;29;20047;-61
2022/11/02 08:28:42;;;;;;;4.03;0.57;;;11.20;99.90;;;;;;4956329;29;20114;-62
2022/11/02 08:31:17;;;;;;;5.97;1.20;;;11.30;99.90;;;;;;4938897;29;20043;-62
2022/11/02 08:33:44;;;;;;;6.35;1.00;;;11.60;99.90;;;;;;4956201;29;20039;-61
2022/11/02 08:36:10;;;;;;;3.25;0.90;;;11.50;99.90;;;;;;4955947;29;20121;-61
2022/11/02 08:38:36;;;;;;;1.83;0.75;;;11.50;99.90;;;;;;4955834;29;20377;-62
2022/11/02 08:41:03;;;;;;;1.90;0.95;;;11.60;99.90;;;;;;4956170;29;20097;-61
2022/11/02 08:43:28;;;;;;;1.83;0.47;;;11.60;99.90;;;;;;4956080;29;20480;-62
2022/11/02 08:45:58;;;;;;;5.40;0.93;;;11.60;99.90;;;;;;4956070;29;20069;-63
2022/11/02 08:48:24;;;;;;;11.63;1.33;;;11.50;99.90;;;;;;4955969;29;20047;-61
2022/11/02 08:50:50;;;;;;;0.95;0.40;;;11.50;99.90;;;;;;4938788;29;20055;-62
2022/11/02 08:53:16;;;;;;;3.10;0.98;;;11.40;99.90;;;;;;4955833;29;20046;-61
2022/11/02 08:55:42;;;;;;;1.45;0.55;;;11.40;99.90;;;;;;4955915;29;20035;-61
2022/11/02 08:58:08;;;;;;;1.33;0.70;;;11.40;99.90;;;;;;4955909;29;20054;-62
2022/11/02 09:00:34;;;;;;;1.52;0.50;;;11.40;99.90;;;;;;4955800;29;20035;-62
2022/11/02 09:03:08;;;;;;;0.55;0.30;;;11.40;99.90;;;;;;4955773;29;20039;-62
2022/11/02 09:05:36;;;;;;;3.92;0.55;;;11.60;99.90;;;;;;4955799;29;20079;-62
2022/11/02 09:08:05;;;;;;;1.98;0.50;;;11.50;99.90;;;;;;4955290;29;20043;-61
2022/11/02 09:10:32;;;;;;;4.38;1.92;;;11.60;99.90;;;;;;4938330;29;20043;-62
2022/11/02 09:12:59;;;;;;;3.80;0.90;;;11.60;99.90;;;;;;4955291;29;20053;-62
2022/11/02 09:15:26;;;;;;;1.85;0.68;;;11.70;99.90;;;;;;4955309;29;20491;-62
2022/11/02 09:17:51;;;;;;;2.05;0.70;;;11.70;99.90;;;;;;4955253;29;20102;-62
2022/11/02 09:20:18;;;;;;;1.30;0.50;;;11.80;99.90;;;;;;4955563;29;20075;-62
2022/11/02 09:22:45;;;;;;;2.15;0.95;;;11.80;99.90;;;;;;4955447;29;20397;-62
2022/11/02 09:25:11;;;;;;;3.17;0.98;;;11.80;99.90;;;;;;4955476;29;20039;-63
2022/11/02 09:27:37;;;;;;;2.88;0.90;;;11.90;99.90;;;;;;4955200;29;20039;-61
2022/11/02 09:30:04;;;;;;;0.98;0.35;;;11.90;99.90;;;;;;4955104;29;20407;-61
2022/11/02 09:32:33;;;;;;;1.80;0.73;;;11.90;99.90;;;;;;4955355;29;20451;-61
2022/11/02 09:35:00;;;;;;;1.27;0.75;;;12.00;99.90;;;;;;4954388;29;20039;-62
2022/11/02 09:37:26;;;;;;;3.67;1.75;;;12.00;99.90;;;;;;4954120;29;20091;-62
2022/11/02 09:39:53;;;;;;;2.67;0.50;;;12.00;99.90;;;;;;4936637;29;20051;-62
2022/11/02 09:42:18;;;;;;;3.10;0.75;;;12.10;99.90;;;;;;4954176;29;20043;-62
2022/11/02 09:45:00;;;;;;;4.20;0.68;;;12.10;99.90;;;;;;4954067;29;20054;-62
2022/11/02 09:47:28;;;;;;;1.77;0.55;;;12.20;99.90;;;;;;4954433;29;20491;-61
2022/11/02 09:49:57;;;;;;;4.20;0.50;;;12.40;99.90;;;;;;4954293;29;20047;-61
2022/11/02 09:52:37;;;;;;;2.42;0.57;;;12.30;99.90;;;;;;4953987;29;20050;-63
2022/11/02 09:55:12;;;;;;;6.28;0.55;;;12.30;99.90;;;;;;4936843;29;20150;-63
2022/11/02 09:57:38;;;;;;;1.10;0.57;;;12.40;99.90;;;;;;4954260;29;20035;-61
2022/11/02 10:00:05;;;;;;;1.08;0.40;;;12.40;99.90;;;;;;4936687;29;20043;-62
2022/11/02 10:02:45;;;;;;;1.10;0.50;;;12.50;99.90;;;;;;4953913;29;20051;-61
2022/11/02 10:05:36;;;;;;;1.85;0.63;;;12.60;99.90;;;;;;4954150;29;20051;-61
2022/11/02 10:08:31;;;;;;;0.98;0.57;;;12.60;99.90;;;;;;4953472;29;20182;-62
2022/11/02 10:11:13;;;;;;;2.75;0.77;;;12.60;99.90;;;;;;4929669;29;20063;-62
2022/11/02 10:13:51;;;;;;;2.85;0.70;;;12.50;99.90;;;;;;4954026;29;20078;-62
2022/11/02 10:16:25;;;;;;;2.58;0.77;;;12.50;98.80;;;;;;4954120;29;20043;-64
2022/11/02 10:18:53;;;;;;;2.17;0.47;;;12.60;99.20;;;;;;4954069;29;20062;-62
2022/11/02 10:21:31;;;;;;;2.97;0.73;;;12.70;99.90;;;;;;4954048;29;20105;-62
2022/11/02 10:23:59;;;;;;;0.73;0.40;;;12.80;99.90;;;;;;4954097;29;20043;-61
2022/11/02 10:26:32;;;;;;;3.33;0.68;;;12.90;96.60;;;;;;4954003;29;20050;-61
2022/11/02 10:29:31;;;;;;;1.67;0.70;;;13.00;97.90;;;;;;4953958;29;20395;-61
2022/11/02 10:31:57;;;;;;;4.13;0.68;;;13.10;97.30;;;;;;4952856;29;20051;-60
2022/11/02 10:34:26;;;;;;;3.47;0.95;;;13.30;96.20;;;;;;4953856;29;20118;-63
2022/11/02 10:37:29;;;;;;;2.13;0.60;;;13.30;95.80;;;;;;4953871;29;20446;-64
2022/11/02 10:39:55;;;;;;;5.57;1.13;;;13.40;92.10;;;;;;4939576;29;20051;-63
2022/11/02 10:43:05;;;;;;;1.38;0.70;;;13.50;92.50;;;;;;4957321;29;20106;-63
2022/11/02 10:46:15;;;;;;;5.73;0.73;;;13.50;93.10;;;;;;4945152;29;20054;-63
2022/11/02 10:49:12;;;;;;;3.03;1.17;;;13.50;95.10;;;;;;4957287;29;20444;-64
2022/11/02 10:51:38;;;;;;;0.47;0.20;;;13.50;89.00;;;;;;4957122;29;20126;-64
2022/11/02 10:54:13;;;;;;;0.63;0.50;;;13.50;91.60;;;;;;4957060;29;20047;-64
2022/11/02 10:56:39;;;;;;;3.97;0.80;;;13.50;93.20;;;;;;4957141;29;20054;-62
2022/11/02 10:59:19;;;;;;;1.10;0.50;;;13.40;90.40;;;;;;4956744;29;20082;-63
2022/11/02 11:02:14;;;;;;;1.63;0.60;;;13.60;92.40;;;;;;4957056;29;20098;-62
2022/11/02 11:04:41;;;;;;;5.43;1.08;;;13.80;89.70;;;;;;4945935;29;20067;-63
2022/11/02 11:07:27;;;;;;;3.80;0.80;;;13.80;82.80;;;;;;4957041;29;20502;-61
2022/11/02 11:09:55;;;;;;;2.60;1.00;;;13.70;85.20;;;;;;4923545;29;20518;-63
2022/11/02 11:12:27;;;;;;;5.75;0.60;;;13.90;86.10;;;;;;4956415;29;20039;-63
2022/11/02 11:14:56;;;;;;;2.00;0.52;;;14.00;84.70;;;;;;4939488;29;20058;-64
2022/11/02 11:17:33;;;;;;;1.88;0.50;;;14.00;85.70;;;;;;4956380;29;20488;-64
2022/11/02 11:19:59;;;;;;;4.85;0.80;;;14.00;88.40;;;;;;4956423;29;20055;-64
2022/11/02 11:22:31;;;;;;;1.73;0.43;;;14.10;91.30;;;;;;4939346;29;20047;-64
2022/11/02 11:25:26;;;;;;;1.10;0.50;;;14.20;84.50;;;;;;4956602;29;20047;-63
2022/11/02 11:27:59;;;;;;;1.85;0.60;;;14.10;85.20;;;;;;4953880;29;20061;-64
2022/11/02 11:30:37;;;;;;;3.03;0.82;;;14.30;75.90;;;;;;4956508;29;20043;-63
2022/11/02 11:33:05;;;;;;;1.15;0.30;;;14.40;79.20;;;;;;4938848;29;20126;-64
2022/11/02 11:35:37;;;;;;;1.77;1.15;;;14.40;83.40;;;;;;4956268;29;20082;-63
2022/11/02 11:38:07;;;;;;;1.40;0.80;;;14.10;77.10;;;;;;4922958;29;20047;-64
2022/11/02 11:40:38;;;;;;;0.93;0.40;;;13.90;73.00;;;;;;4956003;29;20126;-63
2022/11/02 11:43:11;;;;;;;2.53;0.60;;;13.70;77.00;;;;;;4956162;29;20090;-63
2022/11/02 11:45:37;;;;;;;1.67;0.55;;;13.60;82.50;;;;;;4938734;29;20055;-63
2022/11/02 11:48:21;;;;;;;10.00;0.70;;;13.50;82.00;;;;;;4955691;29;20047;-62
2022/11/02 11:50:48;;;;;;;2.30;0.65;;;13.30;70.60;;;;;;4954993;28;20051;-63
2022/11/02 11:53:20;;;;;;;3.22;0.60;;;13.20;61.90;;;;;;4956210;29;20054;-63
2022/11/02 11:55:48;;;;;;;5.78;0.57;;;13.10;71.00;;;;;;4955731;29;20043;-63
2022/11/02 11:58:21;;;;;;;1.02;0.52;;;13.00;72.10;;;;;;4955692;29;20074;-63
2022/11/02 12:01:07;;;;;;;1.23;0.40;;;12.90;70.20;;;;;;4938817;29;20043;-63
2022/11/02 12:03:55;;;;;;;1.02;0.70;;;12.80;70.30;;;;;;4955869;29;20066;-63
2022/11/02 12:06:21;;;;;;;3.72;0.30;;;12.80;73.50;;;;;;4938397;29;20054;-63
2022/11/02 12:08:55;;;;;;;3.40;0.52;;;12.80;78.10;;;;;;4955788;29;20043;-64
2022/11/02 12:11:32;;;;;;;1.92;0.82;;;12.70;74.50;;;;;;4956026;29;20043;-63
2022/11/02 12:14:09;;;;;;;3.78;0.60;;;12.70;80.60;;;;;;4955484;29;20052;-63
2022/11/02 12:16:51;;;;;;;0.30;0.30;;;12.70;81.20;;;;;;4955658;29;20035;-63
2022/11/02 12:19:55;;;;;;;2.08;0.50;;;12.80;80.00;;;;;;4955628;29;20110;-63
2022/11/02 12:22:33;;;;;;;3.70;0.90;;;12.90;81.10;;;;;;4861873;29;20208;-63
2022/11/02 12:25:27;;;;;;;1.50;0.40;;;13.00;78.20;;;;;;4877379;29;20041;-63
2022/11/02 12:28:12;;;;;;;1.17;0.50;;;13.20;84.20;;;;;;4932855;29;20058;-63
2022/11/02 12:30:52;;;;;;;1.08;0.47;;;13.40;81.90;;;;;;4955379;29;20043;-63
2022/11/02 12:33:49;;;;;;;2.47;0.50;;;13.60;71.50;;;;;;4937886;29;20489;-63
2022/11/02 12:36:33;;;;;;;2.08;0.43;;;13.60;82.10;;;;;;4954936;29;20065;-61
2022/11/02 12:39:05;;;;;;;0.47;0.35;;;13.80;43.00;;;;;;4955000;28;20047;-63
2022/11/02 12:42:03;;;;;;;3.13;0.55;;;13.80;10.80;;;;;;4955193;29;20039;-63
2022/11/02 12:44:43;;;;;;;1.40;0.50;;;13.80;1.00;;;;;;4896264;29;20134;-63
2022/11/02 12:47:27;;;;;;;2.85;0.73;;;13.70;1.00;;;;;;4954832;29;20047;-63
2022/11/02 12:50:07;;;;;;;1.63;0.75;;;13.70;1.00;;;;;;4937915;29;20039;-63
2022/11/02 12:53:02;;;;;;;1.15;0.68;;;13.60;1.00;;;;;;4954943;29;20043;-63
2022/11/02 12:55:42;;;;;;;1.33;0.52;;;13.60;1.00;;;;;;4925008;29;20487;-62
2022/11/02 12:58:24;;;;;;;0.30;0.30;;;13.60;1.00;;;;;;4954936;29;20509;-63
2022/11/02 13:01:00;;;;;;;2.78;0.60;;;13.70;1.00;;;;;;4954246;28;20120;-63
2022/11/02 13:03:41;;;;;;;1.60;0.65;;;13.80;1.00;;;;;;4954597;29;20039;-63
2022/11/02 13:06:12;;;;;;;1.80;0.52;;;13.90;1.00;;;;;;4954838;29;20426;-63
2022/11/02 13:08:57;;;;;;;1.38;0.40;;;14.00;1.00;;;;;;4954822;29;20443;-63
2022/11/02 13:11:39;;;;;;;4.38;0.57;;;13.90;1.00;;;;;;4954731;29;20117;-63
2022/11/02 13:14:16;;;;;;;3.13;0.70;;;13.80;1.00;;;;;;4954715;29;20130;-63
2022/11/02 13:17:03;;;;;;;3.13;0.75;;;13.70;1.00;;;;;;4954684;29;20058;-63
2022/11/02 13:19:40;;;;;;;1.50;0.50;;;13.50;1.00;;;;;;4954576;29;20475;-63